Terminal Aerodrome Forecast
Issued by NWS

Home | Current Version | Previous Version | Text Only | Print | Product List | Glossary Off
Versions: 1 2 3 4 5 6 7 8 9 10 11 12 13 14 15 16 17

744
FTUS43 KBIS 061729
TAFMOT
TAF
KMOT 061729Z 0618/0718 24019G28KT P6SM BKN120 WS020/28045KT
     FM070000 27033G44KT P6SM BKN100
     FM070400 29037G49KT P6SM OVC100
     FM071000 29037G49KT P6SM OVC035
     FM071500 30033G44KT 3SM BLSN OVC020=

USA.gov is the U.S. government's official web portal to all federal, state and local government web resources and services.